Elliott, Mississippi
Current Conditions -  °F | °C
As of 1:53 AM on Tuesday 21 Oct 2014 (Local Time) from KGWO Reporting Station
Clear Clear  
Wind Chill: 51°   Ceiling: Unl
Heat Index: 51°   Visibility: 9mi
Dew Point: 49°   Wind: 0mph
Humidity: 92%   Direction: NA
Pressure: 30.05"   Gusts: NA
Location:  33.68°N, 89.75°W
Report Text: KGWO 210653Z AUTO 00000KT 9SM CLR 11/09 A3005 RMK AO2 SLP173 T01060094 TSNO
Loading
Personal Weather Stations






























Interactive Weather Map
Tropical Storm Tracking
New forecast layout! Learn more

10-Day Weather Forecast

Advertisements
Track Severe Weather on mobile